Time;durP1;ratioP1;P1;durP2;ratioP2;P2;SDS_P1;SDS_P2;PMS_P1;PMS_P2;Temp;Humidity;BMP_temperature;BMP_pressure;BME280_temperature;BME280_humidity;BME280_pressure;Samples;Min_cycle;Max_cycle;Signal;HPM_P1;HPM_P2
2023/09/22 00:01:40;;;;;;;1.00;0.47;;;;;;;19.23;100.00;95530.69;5111461;28;20446;-59
2023/09/22 00:04:11;;;;;;;0.50;0.30;;;;;;;19.36;100.00;95521.66;5112461;28;20435;-59
2023/09/22 00:06:39;;;;;;;0.40;0.30;;;;;;;19.36;100.00;95494.00;5086137;28;20431;-59
2023/09/22 00:09:09;;;;;;;0.60;0.50;;;;;;;19.44;100.00;95525.47;5111889;28;20470;-59
2023/09/22 00:11:37;;;;;;;0.60;0.50;;;;;;;19.01;100.00;95480.63;5085939;28;20440;-60
2023/09/22 00:14:07;;;;;;;0.60;0.30;;;;;;;19.44;100.00;95515.53;5110958;28;20439;-59
2023/09/22 00:16:37;;;;;;;0.90;0.90;;;;;;;19.50;100.00;95521.53;5111211;28;20447;-59
2023/09/22 00:19:06;;;;;;;0.97;0.97;;;;;;;19.37;100.00;95512.53;5111760;28;20467;-59
2023/09/22 00:21:35;;;;;;;1.27;0.50;;;;;;;19.46;100.00;95523.25;5111880;28;20496;-60
2023/09/22 00:24:04;;;;;;;0.60;0.40;;;;;;;18.88;100.00;95497.72;5107967;28;20436;-59
2023/09/22 00:26:32;;;;;;;0.60;0.40;;;;;;;19.22;100.00;95522.97;5102250;28;20442;-60
2023/09/22 00:29:01;;;;;;;0.47;0.33;;;;;;;19.13;100.00;95522.16;5111326;28;20935;-60
2023/09/22 00:31:29;;;;;;;0.50;0.30;;;;;;;19.19;100.00;95531.66;5111562;28;20439;-60
2023/09/22 00:33:59;;;;;;;0.50;0.40;;;;;;;19.21;100.00;95524.06;5111546;28;20443;-60
2023/09/22 00:36:28;;;;;;;0.50;0.40;;;;;;;19.30;100.00;95524.84;5111971;28;20492;-60
2023/09/22 00:38:56;;;;;;;0.87;0.40;;;;;;;19.33;100.00;95524.19;5111587;28;20540;-59
2023/09/22 00:41:25;;;;;;;0.87;0.70;;;;;;;19.54;100.00;95520.56;5111920;28;21000;-60
2023/09/22 00:43:53;;;;;;;1.53;1.43;;;;;;;19.49;100.00;95519.94;5111434;28;20514;-60
2023/09/22 00:46:25;;;;;;;0.63;0.40;;;;;;;19.60;100.00;95521.19;5111885;28;20447;-59
2023/09/22 00:48:54;;;;;;;0.50;0.47;;;;;;;19.58;100.00;95513.41;5111467;28;20518;-60
2023/09/22 00:51:24;;;;;;;0.50;0.30;;;;;;;19.47;100.00;95516.78;5111378;28;20478;-59
2023/09/22 00:53:55;;;;;;;0.50;0.30;;;;;;;19.54;100.00;95525.94;5111503;28;20526;-60
2023/09/22 00:56:24;;;;;;;0.50;0.30;;;;;;;19.58;100.00;95521.47;5110418;28;20444;-60
2023/09/22 01:01:39;;;;;;;0.50;0.30;;;;;;;19.65;100.00;95523.69;5113613;28;20435;-60
2023/09/22 01:04:07;;;;;;;0.60;0.60;;;;;;;19.62;100.00;95514.38;5114771;28;20442;-59
2023/09/22 01:06:39;;;;;;;0.50;0.33;;;;;;;19.55;100.00;95527.53;5114800;28;20500;-60
2023/09/22 01:09:07;;;;;;;0.50;0.47;;;;;;;19.44;100.00;95520.09;5114933;28;21012;-60
2023/09/22 01:11:36;;;;;;;0.57;0.30;;;;;;;19.23;100.00;95528.00;5088816;28;20462;-60
2023/09/22 01:14:05;;;;;;;0.83;0.50;;;;;;;19.24;100.00;95526.91;5114703;28;20439;-60
2023/09/22 01:16:33;;;;;;;0.50;0.50;;;;;;;19.34;100.00;95528.47;5106643;27;20442;-60
2023/09/22 01:19:02;;;;;;;0.60;0.47;;;;;;;19.40;100.00;95527.25;5110858;28;20463;-59
2023/09/22 01:21:32;;;;;;;0.60;0.40;;;;;;;19.08;100.00;95535.75;5115881;28;20478;-59
2023/09/22 01:24:01;;;;;;;0.70;0.30;;;;;;;19.25;100.00;95528.47;5114415;28;20439;-59
2023/09/22 01:26:29;;;;;;;0.57;0.40;;;;;;;19.39;100.00;95525.66;5114226;27;20518;-59
2023/09/22 01:28:58;;;;;;;0.50;0.30;;;;;;;19.22;100.00;95531.03;5114253;28;20458;-59
2023/09/22 01:31:26;;;;;;;0.60;0.40;;;;;;;19.30;100.00;95535.59;5115176;28;20435;-60
2023/09/22 01:33:55;;;;;;;0.50;0.30;;;;;;;19.34;100.00;95531.16;5114361;28;20848;-59
2023/09/22 01:36:25;;;;;;;1.67;0.50;;;;;;;19.33;100.00;95526.88;5115009;28;20485;-59
2023/09/22 01:38:55;;;;;;;0.50;0.50;;;;;;;19.21;100.00;95527.53;5114457;28;20528;-59
2023/09/22 01:41:23;;;;;;;0.50;0.30;;;;;;;19.23;100.00;95529.91;5114502;28;20446;-59
2023/09/22 01:43:54;;;;;;;0.47;0.40;;;;;;;18.94;100.00;95534.06;5113872;28;20432;-59
2023/09/22 01:46:22;;;;;;;0.50;0.40;;;;;;;18.86;100.00;95531.34;5114512;28;20882;-59
2023/09/22 01:48:51;;;;;;;5.23;2.40;;;;;;;18.50;100.00;95485.22;5087459;28;20458;-59
2023/09/22 01:51:19;;;;;;;0.50;0.40;;;;;;;19.01;100.00;95550.47;5113632;28;20463;-59
2023/09/22 01:53:48;;;;;;;0.50;0.40;;;;;;;19.01;100.00;95557.75;5114312;28;20467;-59
2023/09/22 01:56:17;;;;;;;0.50;0.37;;;;;;;18.86;100.00;95579.69;5114221;28;20940;-59
2023/09/22 01:58:46;;;;;;;0.50;0.40;;;;;;;18.56;100.00;95583.28;5113961;28;20516;-59
2023/09/22 02:01:14;;;;;;;0.50;0.40;;;;;;;18.61;100.00;95588.50;5113560;27;20435;-58
2023/09/22 02:03:44;;;;;;;0.50;0.30;;;;;;;18.78;100.00;95610.81;5114050;28;20439;-58
2023/09/22 02:06:12;;;;;;;0.93;0.50;;;;;;;18.72;100.00;95605.91;5113432;28;21311;-58
2023/09/22 02:08:41;;;;;;;0.90;0.90;;;;;;;18.14;100.00;95606.94;5113962;28;20494;-58
2023/09/22 02:11:11;;;;;;;0.93;0.77;;;;;;;17.51;100.00;95478.56;5113526;28;20423;-58
2023/09/22 02:13:42;;;;;;;0.70;0.43;;;;;;;18.64;100.00;95553.00;5113562;28;20432;-59
2023/09/22 02:16:10;;;;;;;0.57;0.50;;;;;;;19.21;100.00;95567.84;5113864;28;20939;-58
2023/09/22 02:18:39;;;;;;;0.40;0.27;;;;;;;19.25;100.00;95559.97;5113473;28;21071;-58
2023/09/22 02:21:08;;;;;;;0.70;0.50;;;;;;;19.36;100.00;95558.50;5113022;28;20442;-58
2023/09/22 02:23:37;;;;;;;0.50;0.30;;;;;;;19.23;100.00;95535.28;5113686;28;20534;-58
2023/09/22 02:26:07;;;;;;;0.50;0.30;;;;;;;19.35;100.00;95527.38;5113173;28;20441;-58
2023/09/22 02:28:36;;;;;;;0.50;0.40;;;;;;;19.58;100.00;95520.72;5113244;28;20466;-58
2023/09/22 02:31:07;;;;;;;0.50;0.40;;;;;;;19.48;100.00;95507.63;5113690;27;20518;-59
2023/09/22 02:33:35;;;;;;;0.50;0.30;;;;;;;19.45;100.00;95494.81;5112480;28;20439;-58
2023/09/22 02:36:06;;;;;;;0.53;0.43;;;;;;;19.28;100.00;95473.31;5113180;28;20432;-59
2023/09/22 02:38:35;;;;;;;5.87;0.60;;;;;;;19.53;100.00;95478.63;5113002;28;20466;-59
2023/09/22 02:41:03;;;;;;;0.40;0.30;;;;;;;19.36;100.00;95421.44;5113100;28;20436;-58
2023/09/22 02:43:32;;;;;;;1.00;0.90;;;;;;;18.98;100.00;95472.41;5112744;28;20492;-59
2023/09/22 02:46:03;;;;;;;0.93;0.93;;;;;;;18.78;100.00;95465.00;5112415;28;20939;-59
2023/09/22 02:48:33;;;;;;;1.73;0.40;;;;;;;19.06;100.00;95473.50;5112890;28;20438;-59
2023/09/22 02:51:07;;;;;;;0.60;0.57;;;;;;;18.99;100.00;95471.31;5112936;28;20485;-59
2023/09/22 02:53:35;;;;;;;0.50;0.30;;;;;;;19.33;100.00;95486.56;5113168;27;20794;-59
2023/09/22 02:56:05;;;;;;;3.90;0.60;;;;;;;19.35;100.00;95487.84;5112694;28;20431;-57
2023/09/22 02:58:34;;;;;;;0.50;0.40;;;;;;;19.08;100.00;95500.84;5087007;28;20435;-59
2023/09/22 03:01:03;;;;;;;0.50;0.40;;;;;;;18.45;100.00;95461.97;5111870;28;21028;-59
2023/09/22 03:03:33;;;;;;;0.67;0.67;;;;;;;18.47;100.00;95513.47;5112594;28;20439;-59
2023/09/22 03:06:01;;;;;;;0.57;0.57;;;;;;;18.05;100.00;95519.50;5112331;28;20439;-59
2023/09/22 03:08:30;;;;;;;0.70;0.70;;;;;;;18.27;100.00;95517.50;5112697;28;20444;-59
2023/09/22 03:10:58;;;;;;;0.50;0.30;;;;;;;18.62;100.00;95517.63;5112135;28;20446;-60
2023/09/22 03:13:26;;;;;;;0.50;0.30;;;;;;;18.64;100.00;95504.66;5113021;28;20466;-58
2023/09/22 03:15:55;;;;;;;0.50;0.30;;;;;;;18.24;100.00;95461.03;5112148;28;22143;-58
2023/09/22 03:18:24;;;;;;;0.50;0.40;;;;;;;18.57;100.00;95518.53;5112660;28;20836;-59
2023/09/22 03:20:54;;;;;;;0.50;0.30;;;;;;;18.78;100.00;95529.47;5111694;28;21052;-59
2023/09/22 03:23:23;;;;;;;0.40;0.30;;;;;;;18.22;100.00;95514.19;5112244;28;20668;-59
2023/09/22 03:25:52;;;;;;;0.40;0.30;;;;;;;18.42;100.00;95527.81;5111904;27;20435;-59
2023/09/22 03:28:20;;;;;;;0.60;0.30;;;;;;;18.66;100.00;95532.78;5112216;28;20443;-59
2023/09/22 03:30:49;;;;;;;0.50;0.30;;;;;;;18.92;100.00;95522.81;5116562;28;20436;-59
2023/09/22 03:33:17;;;;;;;0.40;0.30;;;;;;;18.32;100.00;95441.44;5112345;28;20935;-58
2023/09/22 03:35:46;;;;;;;0.57;0.30;;;;;;;18.33;100.00;95537.75;5112117;28;20765;-59
2023/09/22 03:38:16;;;;;;;0.60;0.50;;;;;;;18.43;100.00;95531.28;5111859;28;20448;-58
2023/09/22 03:40:45;;;;;;;0.57;0.40;;;;;;;18.55;100.00;95539.53;5112096;28;20471;-59
2023/09/22 03:43:13;;;;;;;0.40;0.30;;;;;;;18.70;100.00;95547.13;5112080;28;20522;-60
2023/09/22 03:45:42;;;;;;;0.63;0.50;;;;;;;18.28;100.00;95586.19;5112239;28;20504;-59
2023/09/22 03:48:10;;;;;;;0.60;0.60;;;;;;;17.69;100.00;95618.88;5111526;28;20522;-58
2023/09/22 03:50:39;;;;;;;1.83;0.50;;;;;;;17.47;100.00;95651.00;5111305;28;20435;-59
2023/09/22 03:53:07;;;;;;;0.50;0.30;;;;;;;17.66;100.00;95662.38;5111627;28;20459;-59
2023/09/22 03:55:39;;;;;;;1.00;0.50;;;;;;;17.90;100.00;95654.81;5112251;28;20435;-59
2023/09/22 03:58:08;;;;;;;2.10;0.83;;;;;;;17.90;100.00;95622.63;5107937;28;20835;-60
2023/09/22 04:00:37;;;;;;;0.80;0.80;;;;;;;17.91;100.00;95597.38;5102663;28;21018;-59
2023/09/22 04:03:07;;;;;;;0.60;0.50;;;;;;;18.27;100.00;95600.69;5112102;28;20448;-60
2023/09/22 04:05:37;;;;;;;0.50;0.37;;;;;;;18.38;100.00;95579.75;5111981;28;21042;-61
2023/09/22 04:08:06;;;;;;;1.13;1.03;;;;;;;17.91;100.00;95556.38;5111146;28;20440;-61
2023/09/22 04:10:35;;;;;;;0.50;0.30;;;;;;;17.93;100.00;95465.69;5111961;28;20496;-63
2023/09/22 04:13:05;;;;;;;0.50;0.50;;;;;;;18.16;100.00;95520.81;5111172;28;20439;-63
2023/09/22 04:15:33;;;;;;;2.43;0.70;;;;;;;18.28;100.00;95535.22;5111395;28;20661;-62
2023/09/22 04:18:02;;;;;;;0.77;0.60;;;;;;;18.25;100.00;95526.97;5111695;28;20431;-62
2023/09/22 04:20:32;;;;;;;0.50;0.30;;;;;;;18.36;100.00;95528.28;5111433;28;20478;-61
2023/09/22 04:23:04;;;;;;;0.50;0.30;;;;;;;18.56;100.00;95541.13;5111990;28;20769;-61
2023/09/22 04:25:34;;;;;;;0.40;0.30;;;;;;;18.50;100.00;95561.16;5111293;28;20443;-61
2023/09/22 04:28:11;;;;;;;0.60;0.30;;;;;;;18.37;100.00;95567.41;5111236;28;20506;-60
2023/09/22 04:30:40;;;;;;;0.53;0.30;;;;;;;18.25;100.00;95583.31;5110282;28;20500;-60
2023/09/22 04:33:10;;;;;;;0.83;0.80;;;;;;;18.04;100.00;95606.44;5111738;28;20511;-60
2023/09/22 04:35:40;;;;;;;0.83;0.47;;;;;;;18.23;100.00;95588.22;5114760;28;20434;-61
2023/09/22 04:38:10;;;;;;;0.50;0.30;;;;;;;18.24;100.00;95601.31;5115503;27;20435;-61
2023/09/22 04:40:39;;;;;;;0.60;0.40;;;;;;;18.05;100.00;95512.25;5115628;28;20506;-62
2023/09/22 04:43:11;;;;;;;0.50;0.40;;;;;;;18.54;100.00;95588.97;5115355;28;20461;-61
2023/09/22 04:45:41;;;;;;;3.07;0.47;;;;;;;18.14;100.00;95528.38;5115606;28;20436;-61
2023/09/22 04:48:10;;;;;;;0.60;0.30;;;;;;;18.42;100.00;95577.22;5115003;28;20442;-60
2023/09/22 04:50:39;;;;;;;0.57;0.33;;;;;;;18.71;100.00;95578.28;5114448;28;20435;-61
2023/09/22 04:53:08;;;;;;;0.50;0.47;;;;;;;18.40;100.00;95588.25;5114820;28;21068;-62
2023/09/22 04:55:37;;;;;;;1.50;0.90;;;;;;;18.15;100.00;95567.50;5115162;28;20436;-61
2023/09/22 04:58:07;;;;;;;0.60;0.60;;;;;;;18.27;100.00;95579.22;5115163;28;20439;-63
2023/09/22 05:00:37;;;;;;;0.50;0.37;;;;;;;18.34;100.00;95531.25;5115357;28;20475;-60
2023/09/22 05:03:07;;;;;;;0.50;0.40;;;;;;;18.79;100.00;95577.50;5115023;28;20434;-62
2023/09/22 05:05:36;;;;;;;0.50;0.40;;;;;;;18.93;100.00;95577.34;5115075;28;20500;-63
2023/09/22 05:08:07;;;;;;;0.43;0.30;;;;;;;18.87;100.00;95528.34;5114726;28;20439;-61
2023/09/22 05:10:36;;;;;;;0.60;0.50;;;;;;;18.97;100.00;95571.00;5114468;28;20470;-62
2023/09/22 05:13:05;;;;;;;0.40;0.37;;;;;;;18.99;100.00;95571.50;5114665;28;20446;-62
2023/09/22 05:15:34;;;;;;;1.83;0.50;;;;;;;18.62;100.00;95531.03;5114952;28;20514;-61
2023/09/22 05:18:05;;;;;;;0.73;0.30;;;;;;;18.93;100.00;95561.22;5114664;28;20482;-62
2023/09/22 05:20:34;;;;;;;0.50;0.37;;;;;;;19.11;100.00;95559.31;5114351;28;20474;-61
2023/09/22 05:23:03;;;;;;;0.60;0.30;;;;;;;18.83;100.00;95556.16;5114791;28;20469;-63
2023/09/22 05:25:33;;;;;;;0.50;0.30;;;;;;;18.95;100.00;95557.09;5114506;28;20435;-62
2023/09/22 05:28:02;;;;;;;0.50;0.40;;;;;;;18.96;100.00;95558.69;5113756;28;20975;-60
2023/09/22 05:30:31;;;;;;;0.50;0.40;;;;;;;19.01;100.00;95571.97;5114249;28;20492;-63
2023/09/22 05:33:00;;;;;;;0.40;0.30;;;;;;;19.20;100.00;95555.50;5114633;28;20504;-63
2023/09/22 05:35:30;;;;;;;0.40;0.30;;;;;;;19.34;100.00;95563.41;5113721;28;21674;-63
2023/09/22 05:38:01;;;;;;;2.70;0.30;;;;;;;19.55;100.00;95569.75;5115390;28;20439;-64
2023/09/22 05:40:30;;;;;;;0.60;0.50;;;;;;;15.47;100.00;94952.19;5122807;28;20544;-65
2023/09/22 05:42:58;;;;;;;0.50;0.30;;;;;;;19.66;100.00;95565.59;5115709;28;20522;-67
2023/09/22 05:45:27;;;;;;;0.50;0.50;;;;;;;19.16;100.00;95561.84;5113667;28;20839;-66
2023/09/22 05:47:56;;;;;;;0.53;0.40;;;;;;;19.50;100.00;95556.47;5102708;28;20480;-66
2023/09/22 05:50:25;;;;;;;0.50;0.43;;;;;;;19.47;100.00;95498.75;5112797;28;20450;-65
2023/09/22 05:52:55;;;;;;;0.90;0.90;;;;;;;20.39;100.00;95566.31;5113297;28;20830;-66
2023/09/22 05:55:23;;;;;;;0.60;0.60;;;;;;;20.89;100.00;95583.28;5114241;28;20839;-67
2023/09/22 05:57:52;;;;;;;0.90;0.40;;;;;;;21.10;100.00;95573.31;5113842;28;20443;-67
2023/09/22 06:00:26;;;;;;;0.50;0.30;;;;;;;20.96;100.00;95572.78;5113975;27;20443;-66
2023/09/22 06:02:55;;;;;;;0.40;0.30;;;;;;;20.91;100.00;95581.03;5113905;28;20457;-64
2023/09/22 06:05:24;;;;;;;0.77;0.70;;;;;;;20.92;100.00;95580.72;5113710;28;20443;-62
2023/09/22 06:07:54;;;;;;;1.37;1.27;;;;;;;21.04;100.00;95598.88;5113470;28;20448;-61
2023/09/22 06:10:24;;;;;;;1.50;0.50;;;;;;;21.81;100.00;95576.63;5114032;27;20522;-60
2023/09/22 06:12:52;;;;;;;0.40;0.30;;;;;;;22.32;100.00;95567.16;5113698;28;20496;-60
2023/09/22 06:15:23;;;;;;;0.50;0.40;;;;;;;22.57;100.00;95581.44;5113308;28;20492;-54
2023/09/22 06:17:52;;;;;;;2.43;0.50;;;;;;;22.56;100.00;95582.59;5113305;28;20439;-53
2023/09/22 06:20:21;;;;;;;0.50;0.40;;;;;;;22.83;100.00;95589.22;5112785;28;20435;-54
2023/09/22 06:22:49;;;;;;;0.60;0.40;;;;;;;22.64;100.00;95593.28;5111124;28;20559;-55
2023/09/22 06:25:20;;;;;;;1.30;0.40;;;;;;;22.48;100.00;95559.19;5111402;28;20495;-54
2023/09/22 06:27:49;;;;;;;0.50;0.50;;;;;;;22.73;100.00;95588.56;5111030;28;20849;-54
2023/09/22 06:30:20;;;;;;;7.20;1.83;;;;;;;22.81;100.00;95588.78;5110586;28;20443;-53
2023/09/22 06:32:49;;;;;;;1.67;0.30;;;;;;;23.49;100.00;95593.16;5111102;28;20560;-53
2023/09/22 06:35:18;;;;;;;0.50;0.30;;;;;;;23.93;100.00;95575.03;5111531;28;20526;-53
2023/09/22 06:37:49;;;;;;;0.67;0.60;;;;;;;24.07;100.00;95596.25;5113170;28;20448;-54
2023/09/22 06:40:19;;;;;;;0.50;0.30;;;;;;;24.45;98.69;95585.63;5112710;28;20436;-53
2023/09/22 06:42:47;;;;;;;0.90;0.53;;;;;;;24.71;95.94;95574.25;5113300;27;20475;-53
2023/09/22 06:45:18;;;;;;;0.57;0.57;;;;;;;25.24;92.04;95593.31;5113019;27;20443;-54
2023/09/22 06:47:48;;;;;;;0.40;0.30;;;;;;;25.18;91.20;95583.84;5112746;27;20824;-54
2023/09/22 06:50:17;;;;;;;0.50;0.30;;;;;;;25.07;93.22;95590.22;5112566;28;20450;-54
2023/09/22 06:52:46;;;;;;;0.50;0.37;;;;;;;25.50;90.61;95589.19;5112632;28;20684;-53
2023/09/22 06:55:15;;;;;;;0.60;0.40;;;;;;;25.80;88.87;95588.25;5113005;28;20445;-54
2023/09/22 06:57:45;;;;;;;3.60;0.73;;;;;;;25.69;83.51;95545.75;5112352;28;20803;-53
2023/09/22 07:00:18;;;;;;;1.03;0.50;;;;;;;26.20;82.30;95597.91;5087282;28;20527;-54
2023/09/22 07:02:48;;;;;;;0.40;0.30;;;;;;;26.30;81.67;95592.66;5112749;28;20478;-54
2023/09/22 07:05:19;;;;;;;2.00;0.57;;;;;;;26.46;78.65;95590.59;5113060;28;20526;-54
2023/09/22 07:07:49;;;;;;;0.90;0.40;;;;;;;27.07;76.50;95559.66;5112281;28;20518;-54
2023/09/22 07:10:18;;;;;;;0.60;0.40;;;;;;;26.61;77.10;95597.06;5112283;27;20471;-53
2023/09/22 07:12:49;;;;;;;0.50;0.37;;;;;;;26.69;76.82;95592.53;5098965;28;20459;-54
2023/09/22 07:15:18;;;;;;;0.70;0.70;;;;;;;26.42;77.81;95584.31;5111985;28;20522;-53
2023/09/22 07:17:47;;;;;;;0.60;0.40;;;;;;;26.67;76.75;95598.31;5111983;28;20455;-53
2023/09/22 07:20:16;;;;;;;0.50;0.50;;;;;;;27.31;75.10;95591.91;5112414;28;20443;-53
2023/09/22 07:22:44;;;;;;;0.40;0.30;;;;;;;27.18;73.45;95541.56;5112505;28;20506;-53
2023/09/22 07:25:14;;;;;;;0.70;0.50;;;;;;;27.41;72.44;95546.94;5112776;28;20792;-53
2023/09/22 07:27:46;;;;;;;1.37;0.57;;;;;;;27.23;71.78;95564.94;5112394;28;20438;-53
2023/09/22 07:30:18;;;;;;;0.50;0.37;;;;;;;27.61;69.75;95592.69;5096394;28;20448;-52
2023/09/22 07:32:47;;;;;;;0.70;0.60;;;;;;;27.82;72.39;95583.19;5112223;28;20431;-53
2023/09/22 07:35:16;;;;;;;1.03;0.93;;;;;;;28.14;70.86;95593.28;5111338;28;20458;-53
2023/09/22 07:37:45;;;;;;;0.93;0.67;;;;;;;28.08;68.48;95592.06;5111959;28;20541;-52
2023/09/22 07:40:14;;;;;;;0.70;0.70;;;;;;;28.21;70.20;95600.75;5112078;28;20443;-53
2023/09/22 07:42:44;;;;;;;0.93;0.70;;;;;;;28.36;69.05;95599.72;5111897;28;20481;-54
2023/09/22 07:45:13;;;;;;;0.93;0.50;;;;;;;28.13;67.13;95550.84;5111556;28;20439;-52
2023/09/22 07:47:43;;;;;;;0.60;0.50;;;;;;;28.12;68.25;95598.34;5112332;28;20800;-52
2023/09/22 07:50:12;;;;;;;5.90;0.80;;;;;;;28.50;67.95;95596.34;5111408;28;20943;-52
2023/09/22 07:52:43;;;;;;;0.67;0.50;;;;;;;28.85;65.52;95591.97;5111385;28;20494;-52
2023/09/22 07:55:15;;;;;;;0.50;0.50;;;;;;;28.87;65.45;95550.66;5112149;28;20463;-52
2023/09/22 07:57:47;;;;;;;0.70;0.50;;;;;;;29.40;63.99;95589.19;5111679;28;20431;-51
2023/09/22 08:00:18;;;;;;;0.40;0.30;;;;;;;29.42;61.42;95590.38;5086735;28;20439;-52
2023/09/22 08:02:50;;;;;;;0.70;0.70;;;;;;;30.10;59.45;95594.97;5111671;28;20467;-51
2023/09/22 08:05:18;;;;;;;0.80;0.67;;;;;;;30.10;60.69;95584.03;5112346;28;20431;-52
2023/09/22 08:07:49;;;;;;;0.50;0.47;;;;;;;29.98;59.88;95573.44;5111625;28;20451;-52
2023/09/22 08:10:18;;;;;;;0.80;0.80;;;;;;;29.96;57.81;95566.78;5116257;28;20522;-51
2023/09/22 08:12:47;;;;;;;0.50;0.40;;;;;;;31.01;56.68;95579.81;5116006;28;20470;-51
2023/09/22 08:15:16;;;;;;;0.60;0.60;;;;;;;31.52;53.46;95573.84;5116095;28;20446;-50
2023/09/22 08:17:49;;;;;;;0.70;0.70;;;;;;;30.49;54.18;95572.38;5115660;28;20443;-52
2023/09/22 08:20:19;;;;;;;14.20;1.20;;;;;;;30.30;55.85;95550.84;5115859;28;20515;-51
2023/09/22 08:22:48;;;;;;;0.50;0.50;;;;;;;30.08;57.89;95559.00;5115783;28;20817;-50
2023/09/22 08:25:17;;;;;;;1.00;0.50;;;;;;;31.24;53.91;95563.72;5115853;28;20474;-50
2023/09/22 08:27:47;;;;;;;0.80;0.33;;;;;;;31.46;53.39;95552.69;5115183;28;21004;-50
2023/09/22 08:30:16;;;;;;;0.60;0.40;;;;;;;31.83;51.82;95517.28;5115422;28;20509;-50
2023/09/22 08:32:46;;;;;;;0.73;0.50;;;;;;;32.45;49.75;95550.97;5115840;28;20431;-51
2023/09/22 08:35:17;;;;;;;0.63;0.63;;;;;;;32.49;50.46;95553.69;5114859;28;20434;-51
2023/09/22 08:37:46;;;;;;;0.60;0.37;;;;;;;32.64;47.92;95546.91;5115920;28;20530;-50
2023/09/22 08:40:17;;;;;;;0.50;0.40;;;;;;;32.27;48.76;95472.72;5115809;28;21027;-50
2023/09/22 08:42:51;;;;;;;0.40;0.37;;;;;;;33.18;47.56;95539.75;5115863;27;20466;-51
2023/09/22 08:45:21;;;;;;;0.47;0.40;;;;;;;32.68;46.68;95538.66;5114783;28;20905;-51
2023/09/22 08:47:51;;;;;;;0.70;0.43;;;;;;;32.04;47.81;95536.38;5114771;28;20442;-50
2023/09/22 08:50:22;;;;;;;0.93;0.70;;;;;;;31.66;49.76;95483.31;5114584;28;20434;-50
2023/09/22 08:52:52;;;;;;;0.40;0.30;;;;;;;31.88;50.75;95498.44;5114864;28;20466;-51
2023/09/22 08:55:23;;;;;;;0.40;0.37;;;;;;;32.70;48.89;95541.78;5115166;28;20443;-51
2023/09/22 08:57:53;;;;;;;1.83;0.50;;;;;;;33.06;47.48;95537.53;5114566;28;20434;-50
2023/09/22 09:00:26;;;;;;;0.63;0.63;;;;;;;32.71;46.11;95527.66;5114677;28;20442;-51
2023/09/22 09:02:59;;;;;;;0.50;0.50;;;;;;;32.63;46.50;95485.00;5114670;28;20487;-51
2023/09/22 09:05:32;;;;;;;0.40;0.30;;;;;;;33.48;45.59;95533.50;5115332;28;20535;-61
2023/09/22 09:08:11;;;;;;;1.17;1.07;;;;;;;33.24;48.53;95527.13;5115003;28;20470;-61
2023/09/22 09:10:44;;;;;;;0.60;0.60;;;;;;;32.47;46.98;95520.38;5115362;28;20965;-62
2023/09/22 09:13:14;;;;;;;1.00;0.90;;;;;;;32.76;46.62;95520.94;5102210;28;20476;-62
2023/09/22 09:15:47;;;;;;;0.50;0.40;;;;;;;32.66;47.82;95519.09;5114555;28;20957;-62
2023/09/22 09:18:18;;;;;;;0.40;0.30;;;;;;;32.81;45.26;95515.00;5114535;28;21022;-62
2023/09/22 09:20:49;;;;;;;7.23;1.30;;;;;;;33.18;47.51;95495.81;5113138;28;20446;-61
2023/09/22 09:23:20;;;;;;;0.30;0.30;;;;;;;34.14;45.66;95511.84;5114350;28;20500;-61
2023/09/22 09:25:49;;;;;;;1.17;1.03;;;;;;;34.33;43.78;95494.66;5114376;28;20500;-61
2023/09/22 09:28:19;;;;;;;0.53;0.50;;;;;;;34.60;43.71;95500.91;5114747;27;20510;-63
2023/09/22 09:30:51;;;;;;;0.40;0.30;;;;;;;33.63;43.18;95436.75;5114747;28;20434;-61
2023/09/22 09:33:24;;;;;;;1.90;0.73;;;;;;;34.47;42.56;95508.19;5100191;28;20466;-62
2023/09/22 09:35:55;;;;;;;0.40;0.30;;;;;;;35.01;42.23;95498.59;5088293;28;20445;-61
2023/09/22 09:38:27;;;;;;;0.70;0.70;;;;;;;34.69;44.13;95501.13;5114351;28;20445;-61
2023/09/22 09:40:56;;;;;;;0.67;0.67;;;;;;;34.65;43.67;95496.91;5112836;28;20446;-60
2023/09/22 09:43:36;;;;;;;0.30;0.20;;;;;;;35.16;43.13;95492.84;5113991;27;20508;-61
2023/09/22 09:46:08;;;;;;;0.30;0.30;;;;;;;35.49;41.83;95494.53;5114540;28;20435;-61
2023/09/22 09:48:38;;;;;;;0.93;0.93;;;;;;;35.91;42.79;95496.38;5113927;28;20434;-61
2023/09/22 09:51:14;;;;;;;2.30;0.50;;;;;;;35.15;41.71;95485.75;5114030;28;20201;-63
2023/09/22 09:53:45;;;;;;;0.40;0.30;;;;;;;35.03;43.59;95434.78;5088677;28;20438;-62
2023/09/22 09:56:15;;;;;;;0.73;0.50;;;;;;;35.80;42.88;95487.56;5113594;28;20192;-58
2023/09/22 09:58:45;;;;;;;2.00;1.30;;;;;;;36.20;41.65;95482.75;5113750;28;20689;-58
2023/09/22 10:01:14;;;;;;;1.87;0.50;;;;;;;35.22;43.41;95482.88;5114647;28;20246;-57
2023/09/22 10:03:45;;;;;;;2.90;0.60;;;;;;;35.79;42.77;95477.75;5115816;28;20248;-57
2023/09/22 10:06:17;;;;;;;0.40;0.33;;;;;;;35.37;42.95;95470.38;5113654;28;20208;-58
2023/09/22 10:08:45;;;;;;;0.80;0.40;;;;;;;34.93;45.18;95468.84;5113826;28;20657;-58
2023/09/22 10:11:15;;;;;;;0.43;0.30;;;;;;;34.52;43.01;95474.66;5114090;28;20189;-58
2023/09/22 10:13:44;;;;;;;1.07;1.07;;;;;;;33.78;44.86;95471.09;5113097;27;20201;-59
2023/09/22 10:16:13;;;;;;;0.40;0.40;;;;;;;33.82;43.95;95447.09;5113934;28;20189;-58
2023/09/22 10:18:47;;;;;;;0.40;0.30;;;;;;;34.78;44.07;95421.53;5113856;28;20250;-59
2023/09/22 10:21:38;;;;;;;0.50;0.33;;;;;;;35.83;42.40;95452.81;5106790;28;20471;-59
2023/09/22 10:24:17;;;;;;;0.60;0.60;;;;;;;36.84;42.03;95440.47;5109501;28;20300;-59
2023/09/22 10:27:08;;;;;;;0.50;0.40;;;;;;;36.45;41.58;95451.75;5113366;28;20250;-59
2023/09/22 10:29:51;;;;;;;3.30;1.00;;;;;;;36.16;42.63;95443.41;5108168;28;20193;-58
2023/09/22 10:32:26;;;;;;;0.30;0.20;;;;;;;36.55;40.86;95443.22;5112430;27;20590;-59
2023/09/22 10:34:57;;;;;;;0.50;0.47;;;;;;;36.33;40.63;95441.41;5113866;28;20192;-57
2023/09/22 10:37:29;;;;;;;0.60;0.50;;;;;;;37.31;40.15;95438.78;5113371;28;20193;-59
2023/09/22 10:39:58;;;;;;;0.80;0.80;;;;;;;36.26;42.64;95439.59;5112919;28;20283;-57
2023/09/22 10:42:28;;;;;;;0.47;0.40;;;;;;;36.13;42.24;95430.47;5106173;28;20226;-58
2023/09/22 10:45:01;;;;;;;2.05;1.52;;;;;;;36.26;41.29;95429.34;5102330;28;20212;-58
2023/09/22 10:47:41;;;;;;;0.38;0.25;;;;;;;38.13;38.21;95414.94;5112995;28;20196;-58
2023/09/22 10:50:18;;;;;;;0.43;0.38;;;;;;;38.25;38.58;95416.94;5112568;28;20660;-58
2023/09/22 10:52:54;;;;;;;0.70;0.40;;;;;;;38.45;40.14;95425.78;5112902;28;20221;-58
2023/09/22 10:55:30;;;;;;;4.50;0.57;;;;;;;38.32;37.70;95400.13;5112999;28;20257;-58
2023/09/22 10:58:01;;;;;;;0.50;0.50;;;;;;;38.22;38.10;95423.38;5112730;28;20194;-59
2023/09/22 11:00:31;;;;;;;0.40;0.30;;;;;;;38.59;37.89;95418.97;5113117;28;20288;-58
2023/09/22 11:03:10;;;;;;;1.27;0.65;;;;;;;37.92;40.63;95416.44;5112328;28;20201;-58
2023/09/22 11:05:39;;;;;;;1.48;0.43;;;;;;;38.01;38.81;95388.84;5112796;28;20193;-58
2023/09/22 11:08:14;;;;;;;0.35;0.30;;;;;;;37.18;38.50;95402.06;5111921;28;20294;-58
2023/09/22 11:10:44;;;;;;;0.30;0.30;;;;;;;37.08;38.83;95408.66;5113049;27;20213;-58
2023/09/22 11:13:14;;;;;;;0.60;0.45;;;;;;;36.70;39.21;95399.44;5112368;28;20193;-58
2023/09/22 11:15:50;;;;;;;0.35;0.30;;;;;;;37.52;38.73;95401.47;5112082;28;20196;-59
2023/09/22 11:18:21;;;;;;;0.40;0.30;;;;;;;37.43;38.43;95277.69;5111640;28;20193;-58
2023/09/22 11:20:50;;;;;;;0.50;0.40;;;;;;;38.43;39.35;95400.50;5112918;28;20205;-58
2023/09/22 11:23:20;;;;;;;0.70;0.63;;;;;;;37.68;38.74;95387.53;5112386;28;20193;-58
2023/09/22 11:25:55;;;;;;;0.30;0.25;;;;;;;38.34;37.98;95363.66;5112672;28;20197;-59
2023/09/22 11:28:24;;;;;;;0.77;0.50;;;;;;;38.56;39.12;95375.53;5112745;28;20200;-59
2023/09/22 11:30:54;;;;;;;0.40;0.32;;;;;;;37.93;38.36;95372.91;5112307;28;20199;-59
2023/09/22 11:33:23;;;;;;;0.88;0.80;;;;;;;37.90;38.99;95373.81;5112340;28;20207;-58
2023/09/22 11:35:57;;;;;;;0.50;0.45;;;;;;;38.77;37.78;95365.72;5112065;28;20281;-58
2023/09/22 11:38:29;;;;;;;0.40;0.40;;;;;;;38.76;38.15;95361.44;5111365;28;20283;-58
2023/09/22 11:41:08;;;;;;;0.52;0.52;;;;;;;38.22;38.88;95336.75;5112179;28;20269;-58
2023/09/22 11:43:38;;;;;;;2.25;0.60;;;;;;;37.28;38.75;95347.66;5111667;28;20201;-58
2023/09/22 11:46:12;;;;;;;0.50;0.50;;;;;;;37.70;39.40;95354.66;5112450;28;20767;-58